createdAt,value
2023-01-10T00:02:37.508Z,4.88
2023-01-10T00:07:38.874Z,4.90
2023-01-10T00:12:58.944Z,4.92
2023-01-10T00:18:00.178Z,4.97
2023-01-10T00:23:02.993Z,4.97
2023-01-10T00:28:18.854Z,4.95
2023-01-10T00:33:20.864Z,4.96
2023-01-10T00:38:22.028Z,4.96
2023-01-10T00:43:42.228Z,5.00
2023-01-10T00:48:43.381Z,5.06
2023-01-10T00:53:44.683Z,5.07
2023-01-10T00:58:46.137Z,5.07
2023-01-10T01:03:47.289Z,5.11
2023-01-10T01:08:48.516Z,5.07
2023-01-10T01:13:49.743Z,5.07
2023-01-10T01:18:50.948Z,5.05
2023-01-10T01:23:52.515Z,5.04
2023-01-10T01:28:54.347Z,5.04
2023-01-10T01:33:55.673Z,5.06
2023-01-10T01:38:56.900Z,5.05
2023-01-10T01:44:09.931Z,5.01
2023-01-10T01:49:17.643Z,4.98
2023-01-10T01:54:19.331Z,5.02
2023-01-10T01:59:42.519Z,5.06
2023-01-10T02:04:55.029Z,5.08
2023-01-10T02:10:20.778Z,5.05
2023-01-10T02:15:21.983Z,5.05
2023-01-10T02:20:24.165Z,5.06
2023-01-10T02:25:50.228Z,5.08
2023-01-10T02:31:00.262Z,5.11
2023-01-10T02:36:38.991Z,5.17
2023-01-10T02:41:59.197Z,5.24
2023-01-10T02:47:03.798Z,5.26
2023-01-10T02:52:05.021Z,5.24
2023-01-10T02:57:34.161Z,5.20
2023-01-10T03:03:13.251Z,5.12
2023-01-10T03:08:33.758Z,5.03
2023-01-10T03:13:54.026Z,4.96
2023-01-10T03:19:16.898Z,4.93
2023-01-10T03:24:24.661Z,4.92
2023-01-10T03:29:30.851Z,4.93
2023-01-10T03:34:33.330Z,4.96
2023-01-10T03:39:58.196Z,4.98
2023-01-10T03:45:12.743Z,4.99
2023-01-10T03:50:21.592Z,5.01
2023-01-10T03:55:27.887Z,4.98
2023-01-10T04:00:30.108Z,4.93
2023-01-10T04:05:31.287Z,4.90
2023-01-10T04:10:32.557Z,4.88
2023-01-10T04:15:33.921Z,4.84
2023-01-10T04:20:35.546Z,4.76
2023-01-10T04:25:36.867Z,4.65
2023-01-10T04:30:38.167Z,4.54
2023-01-10T04:35:39.282Z,4.45
2023-01-10T04:40:41.323Z,4.32
2023-01-10T04:45:43.015Z,4.17
2023-01-10T04:50:51.350Z,4.03
2023-01-10T04:55:52.581Z,3.90
2023-01-10T05:00:54.129Z,3.82
2023-01-10T05:05:57.918Z,3.78
2023-01-10T05:10:59.387Z,3.79
2023-01-10T05:16:01.081Z,3.84
2023-01-10T05:21:05.595Z,3.88
2023-01-10T05:26:12.015Z,3.93
2023-01-10T05:31:15.738Z,3.97
2023-01-10T05:36:18.329Z,4.06
2023-01-10T05:41:19.513Z,4.11
2023-01-10T05:46:20.938Z,4.15
2023-01-10T05:51:22.324Z,4.19
2023-01-10T05:56:24.775Z,4.23
2023-01-10T06:01:26.139Z,4.23
2023-01-10T06:06:27.333Z,4.20
2023-01-10T06:11:29.371Z,4.19
2023-01-10T06:16:30.589Z,4.19
2023-01-10T06:21:32.093Z,4.20
2023-01-10T06:26:33.353Z,4.22
2023-01-10T06:31:34.652Z,4.20
2023-01-10T06:36:36.057Z,4.22
2023-01-10T06:41:37.433Z,4.30
2023-01-10T06:46:38.901Z,4.29
2023-01-10T06:51:40.182Z,4.24
2023-01-10T06:56:41.412Z,4.21
2023-01-10T07:01:43.343Z,4.19
2023-01-10T07:06:45.493Z,4.14
2023-01-10T07:11:46.726Z,4.09
2023-01-10T07:16:48.341Z,4.09
2023-01-10T07:21:49.589Z,4.09
2023-01-10T07:26:55.876Z,4.09
2023-01-10T07:31:57.066Z,4.09
2023-01-10T07:36:58.424Z,4.07
2023-01-10T07:42:00.610Z,4.07
2023-01-10T07:47:02.015Z,4.03
2023-01-10T07:52:04.406Z,4.03
2023-01-10T07:57:06.038Z,4.03
2023-01-10T08:02:11.112Z,4.08
2023-01-10T08:07:15.978Z,4.17
2023-01-10T08:12:18.365Z,4.31
2023-01-10T08:17:20.658Z,4.44
2023-01-10T08:22:22.242Z,4.52
2023-01-10T08:27:23.466Z,4.54
2023-01-10T08:32:25.049Z,4.64
2023-01-10T08:37:26.301Z,4.73
2023-01-10T08:42:27.520Z,4.84
2023-01-10T08:47:29.434Z,4.92
2023-01-10T08:52:30.613Z,5.00
2023-01-10T08:57:31.936Z,5.05
2023-01-10T09:02:33.362Z,5.11
2023-01-10T09:07:35.173Z,5.14
2023-01-10T09:12:55.219Z,5.20
2023-01-10T09:17:58.073Z,5.30
2023-01-10T09:23:04.713Z,5.41
2023-01-10T09:28:05.941Z,5.53
2023-01-10T09:33:07.896Z,5.60
2023-01-10T09:38:15.659Z,5.66
2023-01-10T09:43:41.811Z,5.71
2023-01-10T09:49:14.537Z,5.72
2023-01-10T09:54:18.818Z,5.73
2023-01-10T09:59:24.185Z,5.76
2023-01-10T10:04:49.135Z,5.79
2023-01-10T10:09:50.708Z,5.81
2023-01-10T10:15:05.180Z,5.92
2023-01-10T10:20:13.444Z,6.03
2023-01-10T10:25:33.183Z,6.11
2023-01-10T10:30:41.755Z,6.11
2023-01-10T10:36:09.910Z,6.12
2023-01-10T10:41:32.858Z,6.09
2023-01-10T10:46:34.133Z,6.00
2023-01-10T10:51:54.382Z,6.05
2023-01-10T10:56:57.517Z,6.05
2023-01-10T11:01:59.867Z,6.04
2023-01-10T11:07:01.119Z,6.08
2023-01-10T11:12:02.947Z,6.14
2023-01-10T11:17:23.261Z,6.12
2023-01-10T11:22:27.261Z,6.03
2023-01-10T11:27:33.266Z,5.99
2023-01-10T11:32:51.823Z,5.97
2023-01-10T11:38:23.914Z,5.92
2023-01-10T11:43:32.277Z,5.96
2023-01-10T11:49:03.742Z,5.98
2023-01-10T11:54:05.817Z,5.88
2023-01-10T11:59:13.877Z,5.76
2023-01-10T12:04:17.156Z,5.76
2023-01-10T12:09:53.368Z,5.71
2023-01-10T12:14:57.216Z,5.63
2023-01-10T12:20:00.758Z,5.55
2023-01-10T12:25:41.006Z,5.56
2023-01-10T12:30:49.293Z,5.62
2023-01-10T12:36:15.426Z,5.64
2023-01-10T12:41:42.833Z,5.60
2023-01-10T12:47:06.683Z,5.57
2023-01-10T12:52:17.448Z,5.63
2023-01-10T12:57:36.412Z,5.75
2023-01-10T13:02:43.234Z,5.91
2023-01-10T13:07:46.992Z,5.90
2023-01-10T13:13:24.009Z,5.84
2023-01-10T13:18:28.086Z,5.82
2023-01-10T13:23:32.819Z,5.81
2023-01-10T13:28:37.300Z,5.85
2023-01-10T13:33:59.615Z,5.85
2023-01-10T13:39:17.241Z,5.77
2023-01-10T13:44:18.593Z,5.60
2023-01-10T13:49:38.712Z,5.47
2023-01-10T13:54:55.079Z,5.35
2023-01-10T14:00:18.910Z,5.24
2023-01-10T14:05:21.862Z,5.13
2023-01-10T14:10:29.608Z,5.07
2023-01-10T14:15:38.321Z,5.00
2023-01-10T14:20:40.763Z,4.89
2023-01-10T14:25:44.599Z,4.74
2023-01-10T14:31:11.027Z,4.63
2023-01-10T14:36:23.320Z,4.57
2023-01-10T14:41:33.923Z,4.43
2023-01-10T14:47:03.958Z,4.29
2023-01-10T14:52:16.422Z,4.19
2023-01-10T14:57:21.004Z,4.17
2023-01-10T15:02:26.686Z,4.20
2023-01-10T15:07:28.196Z,4.21
2023-01-10T15:12:32.027Z,4.17
2023-01-10T15:17:36.655Z,4.16
2023-01-10T15:22:38.029Z,4.11
2023-01-10T15:27:44.975Z,4.08
2023-01-10T15:32:49.529Z,4.04
2023-01-10T15:38:17.318Z,3.99
2023-01-10T15:43:28.309Z,3.97
2023-01-10T15:48:32.977Z,3.92
2023-01-10T15:53:57.220Z,3.91
2023-01-10T15:59:00.224Z,3.91
2023-01-10T16:04:03.905Z,3.92
2023-01-10T16:09:08.284Z,3.88
2023-01-10T16:14:09.618Z,3.87
2023-01-10T16:19:12.729Z,3.89
2023-01-10T16:24:21.419Z,3.88
2023-01-10T16:29:23.791Z,3.87
2023-01-10T16:34:25.329Z,3.82
2023-01-10T16:39:26.487Z,3.75
2023-01-10T16:44:28.370Z,3.70
2023-01-10T16:49:29.692Z,3.70
2023-01-10T16:54:34.706Z,3.75
2023-01-10T16:59:35.854Z,3.78
2023-01-10T17:04:37.143Z,3.78
2023-01-10T17:09:38.544Z,3.79
2023-01-10T17:14:39.797Z,3.76
2023-01-10T17:19:42.020Z,3.83
2023-01-10T17:24:43.202Z,3.90
2023-01-10T17:29:44.380Z,3.94
2023-01-10T17:34:45.575Z,4.01
2023-01-10T17:39:46.818Z,4.02
2023-01-10T17:44:48.500Z,3.99
2023-01-10T17:49:49.935Z,3.98
2023-01-10T17:54:51.186Z,3.97
2023-01-10T17:59:52.326Z,4.00
2023-01-10T18:04:53.530Z,3.98
2023-01-10T18:09:57.127Z,3.97
2023-01-10T18:14:58.307Z,3.96
2023-01-10T18:19:59.581Z,3.93
2023-01-10T18:25:00.858Z,3.87
2023-01-10T18:30:03.051Z,3.85
2023-01-10T18:35:04.577Z,3.82
2023-01-10T18:40:06.586Z,3.79
2023-01-10T18:45:09.024Z,3.78
2023-01-10T18:50:10.369Z,3.78
2023-01-10T18:55:11.590Z,3.77
2023-01-10T19:00:13.586Z,3.77
2023-01-10T19:05:14.934Z,3.78
2023-01-10T19:10:18.233Z,3.82
2023-01-10T19:15:20.409Z,3.90
2023-01-10T19:20:21.955Z,3.94
2023-01-10T19:25:23.167Z,3.95
2023-01-10T19:30:24.389Z,3.91
2023-01-10T19:35:25.662Z,3.88
2023-01-10T19:40:27.203Z,3.83
2023-01-10T19:45:28.979Z,3.78
2023-01-10T19:50:31.856Z,3.73
2023-01-10T19:55:33.522Z,3.71
2023-01-10T20:00:35.053Z,3.73
2023-01-10T20:05:36.299Z,3.75
2023-01-10T20:10:37.500Z,3.74
2023-01-10T20:15:38.897Z,3.76
2023-01-10T20:20:41.556Z,3.76
2023-01-10T20:25:43.203Z,3.78
2023-01-10T20:30:45.658Z,3.77
2023-01-10T20:36:07.226Z,3.77
2023-01-10T20:41:15.497Z,3.77
2023-01-10T20:46:23.545Z,3.81
2023-01-10T20:51:31.435Z,3.86
2023-01-10T20:56:34.404Z,3.91
2023-01-10T21:01:37.022Z,3.95
2023-01-10T21:06:39.192Z,4.01
2023-01-10T21:11:57.860Z,4.05
2023-01-10T21:17:03.107Z,4.05
2023-01-10T21:22:04.562Z,3.98
2023-01-10T21:27:05.753Z,3.92
2023-01-10T21:32:08.576Z,3.93
2023-01-10T21:37:10.398Z,3.99
2023-01-10T21:42:29.886Z,4.03
2023-01-10T21:47:31.510Z,4.08
2023-01-10T21:52:33.015Z,4.13
2023-01-10T21:57:34.327Z,4.15
2023-01-10T22:02:35.520Z,4.16
2023-01-10T22:07:37.501Z,4.16
2023-01-10T22:12:38.771Z,4.17
2023-01-10T22:17:40.629Z,4.15
2023-01-10T22:22:41.812Z,4.15
2023-01-10T22:27:45.146Z,4.18
2023-01-10T22:32:46.970Z,4.19
2023-01-10T22:37:48.130Z,4.19
2023-01-10T22:42:54.123Z,4.20
2023-01-10T22:47:57.656Z,4.21
2023-01-10T22:52:58.781Z,4.19
2023-01-10T22:58:00.344Z,4.16
2023-01-10T23:03:01.601Z,4.14
2023-01-10T23:08:03.205Z,4.12
2023-01-10T23:13:06.625Z,4.10
2023-01-10T23:18:07.832Z,4.11
2023-01-10T23:23:09.112Z,4.11
2023-01-10T23:28:10.964Z,4.10
2023-01-10T23:33:12.109Z,4.09
2023-01-10T23:38:13.328Z,4.10
2023-01-10T23:43:14.614Z,4.10
2023-01-10T23:48:16.635Z,4.04
2023-01-10T23:53:18.679Z,4.01
2023-01-10T23:58:20.093Z,4.01
